createdAt,value
2022-09-21T00:00:54.991Z,4.53
2022-09-21T00:03:22.161Z,4.47
2022-09-21T00:05:49.271Z,4.30
2022-09-21T00:08:16.473Z,4.57
2022-09-21T00:10:43.593Z,4.97
2022-09-21T00:13:12.511Z,4.67
2022-09-21T00:15:40.914Z,4.07
2022-09-21T00:18:08.099Z,5.20
2022-09-21T00:20:35.337Z,4.17
2022-09-21T00:23:03.523Z,4.73
2022-09-21T00:25:30.690Z,4.50
2022-09-21T00:27:57.961Z,4.20
2022-09-21T00:30:25.217Z,3.87
2022-09-21T00:32:54.127Z,3.57
2022-09-21T00:35:21.238Z,3.40
2022-09-21T00:37:48.368Z,3.23
2022-09-21T00:40:15.597Z,3.27
2022-09-21T00:42:42.871Z,3.20
2022-09-21T00:45:21.228Z,3.23
2022-09-21T00:47:53.084Z,3.07
2022-09-21T00:50:23.225Z,3.73
2022-09-21T00:52:52.718Z,3.30
2022-09-21T00:55:23.182Z,3.73
2022-09-21T00:57:52.599Z,3.30
2022-09-21T01:00:19.778Z,3.80
2022-09-21T01:02:46.908Z,3.80
2022-09-21T01:05:14.645Z,3.30
2022-09-21T01:07:44.536Z,3.70
2022-09-21T01:10:14.389Z,3.53
2022-09-21T01:12:52.653Z,4.10
2022-09-21T01:15:38.745Z,3.87
2022-09-21T01:18:24.757Z,3.70
2022-09-21T01:21:13.752Z,4.00
2022-09-21T01:23:59.446Z,4.00
2022-09-21T01:26:35.914Z,3.83
2022-09-21T01:29:21.756Z,3.57
2022-09-21T01:31:48.920Z,3.90
2022-09-21T01:34:20.842Z,3.30
2022-09-21T01:36:48.985Z,3.57
2022-09-21T01:39:17.672Z,3.90
2022-09-21T01:41:46.507Z,3.60
2022-09-21T01:44:16.086Z,4.03
2022-09-21T01:46:43.417Z,3.20
2022-09-21T01:49:15.631Z,3.60
2022-09-21T01:51:46.737Z,4.10
2022-09-21T01:54:15.805Z,3.87
2022-09-21T01:56:45.258Z,3.57
2022-09-21T01:59:12.585Z,3.53
2022-09-21T02:01:48.137Z,4.03
2022-09-21T02:04:15.455Z,4.23
2022-09-21T02:06:45.470Z,3.80
2022-09-21T02:09:13.067Z,3.83
2022-09-21T02:11:43.959Z,3.80
2022-09-21T02:14:33.543Z,3.40
2022-09-21T02:17:07.756Z,4.07
2022-09-21T02:19:45.099Z,4.00
2022-09-21T02:22:25.052Z,3.97
2022-09-21T02:24:56.404Z,4.30
2022-09-21T02:27:35.323Z,4.37
2022-09-21T02:30:08.957Z,4.17
2022-09-21T02:32:43.744Z,4.00
2022-09-21T02:35:17.268Z,4.30
2022-09-21T02:37:57.034Z,4.03
2022-09-21T02:40:32.363Z,3.93
2022-09-21T02:43:03.083Z,4.03
2022-09-21T02:45:36.067Z,3.70
2022-09-21T02:48:09.180Z,3.90
2022-09-21T02:50:40.147Z,3.57
2022-09-21T02:53:08.419Z,3.97
2022-09-21T02:55:35.695Z,3.83
2022-09-21T02:58:05.527Z,4.07
2022-09-21T03:00:32.768Z,3.97
2022-09-21T03:02:59.906Z,3.63
2022-09-21T03:05:28.107Z,4.40
2022-09-21T03:07:55.244Z,3.90
2022-09-21T03:10:22.527Z,3.77
2022-09-21T03:12:49.646Z,3.93
2022-09-21T03:15:18.216Z,3.73
2022-09-21T03:17:45.322Z,3.97
2022-09-21T03:20:12.427Z,4.10
2022-09-21T03:22:39.570Z,5.73
2022-09-21T03:25:07.411Z,4.07
2022-09-21T03:27:35.379Z,4.20
2022-09-21T03:30:02.800Z,3.63
2022-09-21T03:32:30.046Z,4.90
2022-09-21T03:34:57.164Z,4.20
2022-09-21T03:37:25.195Z,4.27
2022-09-21T03:39:52.447Z,4.73
2022-09-21T03:42:21.638Z,4.30
2022-09-21T03:44:48.751Z,4.53
2022-09-21T03:47:15.899Z,4.30
2022-09-21T03:49:43.012Z,5.47
2022-09-21T03:52:10.170Z,3.93
2022-09-21T03:54:37.628Z,4.60
2022-09-21T03:57:04.876Z,4.33
2022-09-21T03:59:32.015Z,4.63
2022-09-21T04:01:59.186Z,4.90
2022-09-21T04:04:26.290Z,6.17
2022-09-21T04:06:53.434Z,5.30
2022-09-21T04:09:20.547Z,4.83
2022-09-21T04:11:48.262Z,4.63
2022-09-21T04:14:15.385Z,4.60
2022-09-21T04:16:42.622Z,4.33
2022-09-21T04:19:09.749Z,4.23
2022-09-21T04:21:36.953Z,4.07
2022-09-21T04:24:04.317Z,4.83
2022-09-21T04:26:32.881Z,4.10
2022-09-21T04:29:00.477Z,4.63
2022-09-21T04:31:28.242Z,4.93
2022-09-21T04:33:57.240Z,4.27
2022-09-21T04:36:25.432Z,4.40
2022-09-21T04:38:52.614Z,4.67
2022-09-21T04:41:19.966Z,5.17
2022-09-21T04:43:49.566Z,4.50
2022-09-21T04:46:17.661Z,4.77
2022-09-21T04:48:44.798Z,4.20
2022-09-21T04:51:12.735Z,4.17
2022-09-21T04:53:40.979Z,4.27
2022-09-21T04:56:08.583Z,4.80
2022-09-21T04:58:36.045Z,4.70
2022-09-21T05:01:04.374Z,4.40
2022-09-21T05:03:31.610Z,3.70
2022-09-21T05:05:59.147Z,4.67
2022-09-21T05:08:45.562Z,4.13
2022-09-21T05:11:14.471Z,4.37
2022-09-21T05:13:41.582Z,3.93
2022-09-21T05:16:09.168Z,4.13
2022-09-21T05:18:36.447Z,4.30
2022-09-21T05:21:04.416Z,4.50
2022-09-21T05:23:32.088Z,5.07
2022-09-21T05:26:00.034Z,4.77
2022-09-21T05:28:27.754Z,5.27
2022-09-21T05:31:16.313Z,5.07
2022-09-21T05:33:45.448Z,4.50
2022-09-21T05:36:24.255Z,4.67
2022-09-21T05:38:51.559Z,4.23
2022-09-21T05:41:18.943Z,4.63
2022-09-21T05:43:46.334Z,4.57
2022-09-21T05:46:17.341Z,4.47
2022-09-21T05:48:49.144Z,3.90
2022-09-21T05:51:25.436Z,4.20
2022-09-21T05:54:04.557Z,4.23
2022-09-21T05:56:49.584Z,4.53
2022-09-21T05:59:35.335Z,4.73
2022-09-21T06:02:12.062Z,4.20
2022-09-21T06:04:39.494Z,4.27
2022-09-21T06:07:06.618Z,4.70
2022-09-21T06:09:33.731Z,4.40
2022-09-21T06:12:01.073Z,4.80
2022-09-21T06:14:28.702Z,5.10
2022-09-21T06:16:55.866Z,4.83
2022-09-21T06:19:22.994Z,4.80
2022-09-21T06:21:50.149Z,4.97
2022-09-21T06:24:17.314Z,4.17
2022-09-21T06:26:44.435Z,4.73
2022-09-21T06:29:11.582Z,5.73
2022-09-21T06:31:38.676Z,4.90
2022-09-21T06:34:05.939Z,5.00
2022-09-21T06:36:33.165Z,4.43
2022-09-21T06:39:00.312Z,4.47
2022-09-21T06:41:27.450Z,4.80
2022-09-21T06:43:56.302Z,5.00
2022-09-21T06:46:24.156Z,4.67
2022-09-21T06:48:51.543Z,4.17
2022-09-21T06:51:21.161Z,4.67
2022-09-21T06:53:48.661Z,4.70
2022-09-21T06:56:16.355Z,3.73
2022-09-21T06:58:43.777Z,3.93
2022-09-21T07:01:11.958Z,4.30
2022-09-21T07:03:40.055Z,4.30
2022-09-21T07:06:07.987Z,4.83
2022-09-21T07:11:24.010Z,5.17
2022-09-21T07:13:51.214Z,5.93
2022-09-21T07:16:19.551Z,6.07
2022-09-21T07:18:47.108Z,6.23
2022-09-21T07:21:14.810Z,6.27
2022-09-21T07:23:42.239Z,6.27
2022-09-21T07:26:10.906Z,6.03
2022-09-21T07:28:38.083Z,6.00
2022-09-21T07:31:09.291Z,5.83
2022-09-21T07:33:36.911Z,5.87
2022-09-21T07:36:10.352Z,5.93
2022-09-21T07:38:41.143Z,6.60
2022-09-21T07:41:08.836Z,6.60
2022-09-21T07:43:36.075Z,6.50
2022-09-21T07:46:03.231Z,6.20
2022-09-21T07:48:31.094Z,6.00
2022-09-21T07:51:04.933Z,6.23
2022-09-21T07:53:32.920Z,5.77
2022-09-21T07:56:04.174Z,5.87
2022-09-21T07:58:50.597Z,6.20
2022-09-21T08:01:17.993Z,5.90
2022-09-21T08:03:45.436Z,5.80
2022-09-21T08:06:12.567Z,6.27
2022-09-21T08:08:41.677Z,6.50
2022-09-21T08:11:09.438Z,6.70
2022-09-21T08:13:36.618Z,6.90
2022-09-21T08:16:07.937Z,7.40
2022-09-21T08:18:40.654Z,7.17
2022-09-21T08:21:12.147Z,7.10
2022-09-21T08:23:43.697Z,7.40
2022-09-21T08:26:19.092Z,7.73
2022-09-21T08:28:52.486Z,7.07
2022-09-21T08:31:22.482Z,6.80
2022-09-21T08:33:51.182Z,7.43
2022-09-21T08:36:20.471Z,7.03
2022-09-21T08:38:49.191Z,7.63
2022-09-21T08:41:20.161Z,7.97
2022-09-21T08:43:53.993Z,8.13
2022-09-21T08:46:24.749Z,7.73
2022-09-21T08:48:57.434Z,7.77
2022-09-21T08:51:28.683Z,7.53
2022-09-21T08:54:03.231Z,7.83
2022-09-21T08:56:47.384Z,8.50
2022-09-21T08:59:19.656Z,8.03
2022-09-21T09:01:54.734Z,7.90
2022-09-21T09:04:23.001Z,8.17
2022-09-21T09:06:59.839Z,7.20
2022-09-21T09:09:28.053Z,7.10
2022-09-21T09:11:58.998Z,8.03
2022-09-21T09:14:27.055Z,6.90
2022-09-21T09:17:13.864Z,6.83
2022-09-21T09:19:43.951Z,6.70
2022-09-21T09:22:13.958Z,6.90
2022-09-21T09:24:45.115Z,5.90
2022-09-21T09:27:24.246Z,5.97
2022-09-21T09:30:02.912Z,6.27
2022-09-21T09:32:35.571Z,6.17
2022-09-21T09:35:15.566Z,6.03
2022-09-21T09:37:43.789Z,6.57
2022-09-21T09:40:13.763Z,5.90
2022-09-21T09:43:04.958Z,5.63
2022-09-21T09:45:49.020Z,5.17
2022-09-21T09:48:42.488Z,4.00
2022-09-21T09:51:17.271Z,4.07
2022-09-21T09:53:45.532Z,3.67
2022-09-21T09:56:15.887Z,3.80
2022-09-21T09:58:52.139Z,3.77
2022-09-21T10:01:59.318Z,3.33
2022-09-21T10:04:28.026Z,3.40
2022-09-21T10:06:58.412Z,3.00
2022-09-21T10:09:29.309Z,2.57
2022-09-21T10:11:59.497Z,2.60
2022-09-21T10:14:29.700Z,2.47
2022-09-21T10:16:58.105Z,3.03
2022-09-21T10:19:27.278Z,3.30
2022-09-21T10:21:59.542Z,3.00
2022-09-21T10:24:40.639Z,2.70
2022-09-21T10:27:11.711Z,2.17
2022-09-21T10:29:46.592Z,2.47
2022-09-21T10:32:16.266Z,2.70
2022-09-21T10:35:04.663Z,2.13
2022-09-21T10:37:34.934Z,2.27
2022-09-21T10:40:03.403Z,2.10
2022-09-21T10:42:34.825Z,1.97
2022-09-21T10:45:16.500Z,2.10
2022-09-21T10:48:08.303Z,2.00
2022-09-21T10:50:36.489Z,2.20
2022-09-21T10:53:10.496Z,1.80
2022-09-21T10:55:52.657Z,1.87
2022-09-21T10:58:27.079Z,2.53
2022-09-21T11:00:56.125Z,2.40
2022-09-21T11:03:42.663Z,2.00
2022-09-21T11:06:14.499Z,1.90
2022-09-21T11:09:01.188Z,2.03
2022-09-21T11:11:32.270Z,1.83
2022-09-21T11:14:03.362Z,1.77
2022-09-21T11:16:37.100Z,1.90
2022-09-21T11:19:24.112Z,1.97
2022-09-21T11:22:16.970Z,1.70
2022-09-21T11:24:59.480Z,2.00
2022-09-21T11:27:32.097Z,1.50
2022-09-21T11:30:04.089Z,1.53
2022-09-21T11:32:37.931Z,1.60
2022-09-21T11:35:06.170Z,1.70
2022-09-21T11:37:52.951Z,1.53
2022-09-21T11:40:24.361Z,1.73
2022-09-21T11:43:01.880Z,1.67
2022-09-21T11:45:30.280Z,1.80
2022-09-21T11:47:58.503Z,1.70
2022-09-21T11:50:42.322Z,1.67
2022-09-21T11:53:14.550Z,2.10
2022-09-21T11:55:45.699Z,2.07
2022-09-21T11:58:15.276Z,1.90
2022-09-21T12:00:51.684Z,2.00
2022-09-21T12:03:22.012Z,1.40
2022-09-21T12:05:54.562Z,1.17
2022-09-21T12:08:28.951Z,1.80
2022-09-21T12:11:13.289Z,1.30
2022-09-21T12:13:52.075Z,2.57
2022-09-21T12:16:23.470Z,1.50
2022-09-21T12:18:58.050Z,1.40
2022-09-21T12:21:29.454Z,1.47
2022-09-21T12:23:57.675Z,1.47
2022-09-21T12:26:29.183Z,1.30
2022-09-21T12:29:05.256Z,1.50
2022-09-21T12:31:45.756Z,2.03
2022-09-21T12:34:24.544Z,1.53
2022-09-21T12:37:07.044Z,1.30
2022-09-21T12:39:41.404Z,1.53
2022-09-21T12:42:24.199Z,2.13
2022-09-21T12:44:55.782Z,1.53
2022-09-21T12:47:40.683Z,1.50
2022-09-21T12:50:28.887Z,1.60
2022-09-21T12:52:58.396Z,1.23
2022-09-21T12:55:51.258Z,1.90
2022-09-21T12:58:25.490Z,1.60
2022-09-21T13:01:00.380Z,1.63
2022-09-21T13:03:40.786Z,1.70
2022-09-21T13:06:29.626Z,1.43
2022-09-21T13:08:57.332Z,1.53
2022-09-21T13:11:24.629Z,1.07
2022-09-21T13:13:55.471Z,1.30
2022-09-21T13:16:33.760Z,1.73
2022-09-21T13:19:04.279Z,1.67
2022-09-21T13:21:32.758Z,1.63
2022-09-21T13:24:01.612Z,1.60
2022-09-21T13:26:35.746Z,1.40
2022-09-21T13:29:21.167Z,1.20
2022-09-21T13:32:02.001Z,1.47
2022-09-21T13:34:36.450Z,1.33
2022-09-21T13:37:16.635Z,1.47
2022-09-21T13:39:44.666Z,1.67
2022-09-21T13:42:44.374Z,1.97
2022-09-21T13:45:14.234Z,1.93
2022-09-21T13:47:42.339Z,1.50
2022-09-21T13:50:27.726Z,1.27
2022-09-21T13:52:59.220Z,2.00
2022-09-21T13:55:34.674Z,1.47
2022-09-21T13:58:04.851Z,1.20
2022-09-21T14:00:42.668Z,1.63
2022-09-21T14:03:22.930Z,1.80
2022-09-21T14:05:52.389Z,1.50
2022-09-21T14:08:22.707Z,1.10
2022-09-21T14:11:12.397Z,1.50
2022-09-21T14:13:42.097Z,1.60
2022-09-21T14:16:28.080Z,1.10
2022-09-21T14:18:55.949Z,1.40
2022-09-21T14:21:23.871Z,1.60
2022-09-21T14:24:10.111Z,1.53
2022-09-21T14:26:40.254Z,1.77
2022-09-21T14:29:29.618Z,1.87
2022-09-21T14:32:01.424Z,1.00
2022-09-21T14:34:31.761Z,1.43
2022-09-21T14:37:00.225Z,1.40
2022-09-21T14:39:32.718Z,1.50
2022-09-21T14:42:01.957Z,2.00
2022-09-21T14:44:31.237Z,1.70
2022-09-21T14:47:07.777Z,1.70
2022-09-21T14:49:35.199Z,1.57
2022-09-21T14:52:12.935Z,1.47
2022-09-21T14:54:41.519Z,1.70
2022-09-21T14:57:24.243Z,1.43
2022-09-21T14:59:51.406Z,1.23
2022-09-21T15:02:18.676Z,1.47
2022-09-21T15:04:54.512Z,1.30
2022-09-21T15:07:40.377Z,1.30
2022-09-21T15:10:46.423Z,2.00
2022-09-21T15:13:26.579Z,1.80
2022-09-21T15:16:09.278Z,2.30
2022-09-21T15:18:42.966Z,1.70
2022-09-21T15:21:19.509Z,1.20
2022-09-21T15:23:46.669Z,4.60
2022-09-21T15:26:21.053Z,2.40
2022-09-21T15:29:13.987Z,1.53
2022-09-21T15:31:41.213Z,1.60
2022-09-21T15:34:10.877Z,2.10
2022-09-21T15:36:39.411Z,1.90
2022-09-21T15:39:06.865Z,1.97
2022-09-21T15:41:41.567Z,2.20
2022-09-21T15:44:33.166Z,1.80
2022-09-21T15:47:03.251Z,1.80
2022-09-21T15:49:31.009Z,2.23
2022-09-21T15:51:58.811Z,1.70
2022-09-21T15:54:34.717Z,1.80
2022-09-21T15:57:07.893Z,1.80
2022-09-21T15:59:35.464Z,1.60
2022-09-21T16:02:12.558Z,1.80
2022-09-21T16:04:48.314Z,1.50
2022-09-21T16:07:30.749Z,1.70
2022-09-21T16:09:58.003Z,1.63
2022-09-21T16:12:25.103Z,2.23
2022-09-21T16:14:58.734Z,2.37
2022-09-21T16:17:29.189Z,2.13
2022-09-21T16:19:59.709Z,2.57
2022-09-21T16:22:44.185Z,2.10
2022-09-21T16:25:20.746Z,1.80
2022-09-21T16:27:56.052Z,1.83
2022-09-21T16:30:40.132Z,2.00
2022-09-21T16:33:25.936Z,1.73
2022-09-21T16:35:53.175Z,1.50
2022-09-21T16:38:23.569Z,1.80
2022-09-21T16:40:54.031Z,2.13
2022-09-21T16:43:23.358Z,1.97
2022-09-21T16:45:50.811Z,2.03
2022-09-21T16:48:18.855Z,1.80
2022-09-21T16:50:46.443Z,1.63
2022-09-21T16:53:13.585Z,1.83
2022-09-21T16:55:43.286Z,2.33
2022-09-21T16:58:10.952Z,2.33
2022-09-21T17:00:40.911Z,2.67
2022-09-21T17:03:08.074Z,2.67
2022-09-21T17:05:35.270Z,2.20
2022-09-21T17:08:03.031Z,2.17
2022-09-21T17:10:35.623Z,2.30
2022-09-21T17:13:06.789Z,1.70
2022-09-21T17:15:35.919Z,2.20
2022-09-21T17:18:04.033Z,1.93
2022-09-21T17:20:31.178Z,2.00
2022-09-21T17:22:58.715Z,5.13
2022-09-21T17:25:26.356Z,4.50
2022-09-21T17:27:53.508Z,3.90
2022-09-21T17:30:22.116Z,3.40
2022-09-21T17:32:50.180Z,3.43
2022-09-21T17:35:19.115Z,3.53
2022-09-21T17:37:46.334Z,3.37
2022-09-21T17:40:13.881Z,3.57
2022-09-21T17:42:42.487Z,2.70
2022-09-21T17:45:28.501Z,3.27
2022-09-21T17:47:55.795Z,2.30
2022-09-21T17:50:27.394Z,3.20
2022-09-21T17:53:14.192Z,3.13
2022-09-21T17:55:48.836Z,3.40
2022-09-21T17:58:42.392Z,4.17
2022-09-21T18:01:10.126Z,4.00
2022-09-21T18:03:42.539Z,5.60
2022-09-21T18:06:10.551Z,5.67
2022-09-21T18:08:38.831Z,5.77
2022-09-21T18:11:06.136Z,4.30
2022-09-21T18:13:33.699Z,4.00
2022-09-21T18:16:19.831Z,3.30
2022-09-21T18:18:52.198Z,4.13
2022-09-21T18:21:21.067Z,8.13
2022-09-21T18:23:53.388Z,7.00
2022-09-21T18:26:20.844Z,8.17
2022-09-21T18:28:57.900Z,6.40
2022-09-21T18:31:27.879Z,5.40
2022-09-21T18:33:58.227Z,5.60
2022-09-21T18:36:48.586Z,3.93
2022-09-21T18:39:24.790Z,3.77
2022-09-21T18:42:07.342Z,4.17
2022-09-21T18:44:34.470Z,5.53
2022-09-21T18:47:08.542Z,6.83
2022-09-21T18:49:36.266Z,12.40
2022-09-21T18:52:12.989Z,13.97
2022-09-21T18:54:40.514Z,16.30
2022-09-21T18:57:12.687Z,15.93
2022-09-21T18:59:40.250Z,16.47
2022-09-21T19:02:12.182Z,14.83
2022-09-21T19:04:39.898Z,16.57
2022-09-21T19:07:13.622Z,15.03
2022-09-21T19:09:43.768Z,13.23
2022-09-21T19:12:26.311Z,12.77
2022-09-21T19:15:12.521Z,10.13
2022-09-21T19:17:48.961Z,11.67
2022-09-21T19:20:35.376Z,12.90
2022-09-21T19:23:22.080Z,12.37
2022-09-21T19:25:51.439Z,12.60
2022-09-21T19:28:32.184Z,10.63
2022-09-21T19:31:13.669Z,8.93
2022-09-21T19:33:56.442Z,6.67
2022-09-21T19:36:24.432Z,6.50
2022-09-21T19:38:51.885Z,6.20
2022-09-21T19:41:28.215Z,6.47
2022-09-21T19:44:15.120Z,6.77
2022-09-21T19:47:00.612Z,5.70
2022-09-21T19:49:41.359Z,4.40
2022-09-21T19:52:09.753Z,4.47
2022-09-21T19:54:55.783Z,6.73
2022-09-21T19:57:41.942Z,8.83
2022-09-21T20:00:13.439Z,7.17
2022-09-21T20:02:46.451Z,7.03
2022-09-21T20:05:25.062Z,6.53
2022-09-21T20:08:04.391Z,6.33
2022-09-21T20:10:37.566Z,6.80
2022-09-21T20:13:14.818Z,10.60
2022-09-21T20:15:45.519Z,10.10
2022-09-21T20:18:17.816Z,10.87
2022-09-21T20:20:45.025Z,12.67
2022-09-21T20:23:13.367Z,11.23
2022-09-21T20:25:44.533Z,9.23
2022-09-21T20:28:12.151Z,8.23
2022-09-21T20:30:40.171Z,8.50
2022-09-21T20:33:15.060Z,8.33
2022-09-21T20:35:43.226Z,6.63
2022-09-21T20:38:10.725Z,6.53
2022-09-21T20:40:39.330Z,6.80
2022-09-21T20:43:07.995Z,5.77
2022-09-21T20:45:35.595Z,5.63
2022-09-21T20:48:13.379Z,5.23
2022-09-21T20:50:43.376Z,4.90
2022-09-21T20:53:10.898Z,4.67
2022-09-21T20:55:38.534Z,4.47
2022-09-21T20:58:07.859Z,4.50
2022-09-21T21:00:35.525Z,4.13
2022-09-21T21:03:03.710Z,4.50
2022-09-21T21:05:30.836Z,4.13
2022-09-21T21:07:58.318Z,4.70
2022-09-21T21:10:25.504Z,5.07
2022-09-21T21:12:52.746Z,6.70
2022-09-21T21:15:19.994Z,6.73
2022-09-21T21:17:48.485Z,4.70
2022-09-21T21:20:19.124Z,5.47
2022-09-21T21:22:49.307Z,4.80
2022-09-21T21:25:17.019Z,4.43
2022-09-21T21:27:44.187Z,4.97
2022-09-21T21:30:11.849Z,4.80
2022-09-21T21:32:38.984Z,4.63
2022-09-21T21:35:07.180Z,4.57
2022-09-21T21:37:34.362Z,4.27
2022-09-21T21:40:02.322Z,4.50
2022-09-21T21:42:29.834Z,4.17
2022-09-21T21:44:57.069Z,5.33
2022-09-21T21:47:41.020Z,4.37
2022-09-21T21:50:09.322Z,4.83
2022-09-21T21:52:36.788Z,4.67
2022-09-21T21:55:04.218Z,4.27
2022-09-21T21:57:33.466Z,4.43
2022-09-21T22:00:02.281Z,4.30
2022-09-21T22:02:31.968Z,4.77
2022-09-21T22:05:00.867Z,4.73
2022-09-21T22:07:29.492Z,4.40
2022-09-21T22:09:58.174Z,4.70
2022-09-21T22:12:26.244Z,4.90
2022-09-21T22:14:53.434Z,4.67
2022-09-21T22:17:21.843Z,5.00
2022-09-21T22:19:49.495Z,4.63
2022-09-21T22:22:16.752Z,4.97
2022-09-21T22:24:43.907Z,6.00
2022-09-21T22:27:12.074Z,6.27
2022-09-21T22:29:40.181Z,6.53
2022-09-21T22:32:07.330Z,6.70
2022-09-21T22:34:34.512Z,5.80
2022-09-21T22:37:01.639Z,5.13
2022-09-21T22:39:28.843Z,5.87
2022-09-21T22:41:55.966Z,6.13
2022-09-21T22:44:23.255Z,6.10
2022-09-21T22:46:50.370Z,6.53
2022-09-21T22:49:17.994Z,6.03
2022-09-21T22:51:45.255Z,5.00
2022-09-21T22:54:12.388Z,5.10
2022-09-21T22:56:40.561Z,5.80
2022-09-21T22:59:08.366Z,5.10
2022-09-21T23:01:39.521Z,5.43
2022-09-21T23:04:09.945Z,5.17
2022-09-21T23:06:40.151Z,5.27
2022-09-21T23:09:09.128Z,6.07
2022-09-21T23:11:38.990Z,5.07
2022-09-21T23:14:06.181Z,5.80
2022-09-21T23:16:33.435Z,4.70
2022-09-21T23:19:01.018Z,5.00
2022-09-21T23:21:29.091Z,4.77
2022-09-21T23:24:03.240Z,4.87
2022-09-21T23:26:32.085Z,5.20
2022-09-21T23:29:03.786Z,5.10
2022-09-21T23:31:31.531Z,5.23
2022-09-21T23:34:00.084Z,4.80
2022-09-21T23:36:28.696Z,5.87
2022-09-21T23:38:55.919Z,5.00
2022-09-21T23:41:24.521Z,5.10
2022-09-21T23:43:51.922Z,4.70
2022-09-21T23:46:24.719Z,5.07
2022-09-21T23:48:52.571Z,5.00
2022-09-21T23:51:20.070Z,4.77
2022-09-21T23:53:47.407Z,4.73
2022-09-21T23:56:16.166Z,5.37
2022-09-21T23:58:43.377Z,4.97
